Time;durP1;ratioP1;P1;durP2;ratioP2;P2;SDS_P1;SDS_P2;PMS_P1;PMS_P2;Temp;Humidity;BMP_temperature;BMP_pressure;BME280_temperature;BME280_humidity;BME280_pressure;Samples;Min_cycle;Max_cycle;Signal;HPM_P1;HPM_P2
2022/06/14 00:02:51;;;;;;;9.38;2.00;;;;;;;14.28;62.58;102468.31;5028327;28;20090;-53
2022/06/14 00:05:17;;;;;;;10.40;2.10;;;;;;;14.28;62.65;102468.31;5027385;28;20033;-54
2022/06/14 00:07:42;;;;;;;10.85;1.98;;;;;;;14.28;62.62;102460.53;5027245;28;20040;-58
2022/06/14 00:10:08;;;;;;;6.47;1.58;;;;;;;14.26;62.98;102460.50;5029014;28;20053;-57
2022/06/14 00:12:33;;;;;;;9.50;2.03;;;;;;;14.16;63.13;102463.53;4999237;28;20029;-57
2022/06/14 00:14:59;;;;;;;8.07;2.08;;;;;;;14.11;63.50;102471.13;5027566;28;20493;-56
2022/06/14 00:17:24;;;;;;;6.32;1.98;;;;;;;14.13;63.64;102466.88;5028169;28;20166;-52
2022/06/14 00:19:49;;;;;;;6.47;1.73;;;;;;;14.09;63.54;102464.13;5024629;28;20469;-57
2022/06/14 00:22:15;;;;;;;6.30;1.80;;;;;;;14.07;63.66;102465.75;5023715;28;20132;-53
2022/06/14 00:24:40;;;;;;;6.50;1.58;;;;;;;14.09;63.72;102469.31;5028609;28;20464;-57
2022/06/14 00:27:06;;;;;;;8.93;1.85;;;;;;;14.09;63.92;102475.34;5029010;28;20036;-57
2022/06/14 00:29:31;;;;;;;6.07;1.90;;;;;;;13.95;63.86;102467.06;5024181;28;20069;-51
2022/06/14 00:31:57;;;;;;;6.07;1.98;;;;;;;13.96;63.92;102470.53;5022152;28;20502;-52
2022/06/14 00:34:23;;;;;;;6.25;1.90;;;;;;;13.93;64.56;102472.97;5013508;28;20029;-56
2022/06/14 00:36:54;;;;;;;6.10;1.85;;;;;;;13.91;64.44;102470.34;5028781;28;20036;-58
2022/06/14 00:39:19;;;;;;;7.22;2.08;;;;;;;13.85;64.72;102471.78;5031497;28;20047;-52
2022/06/14 00:41:49;;;;;;;9.75;2.10;;;;;;;13.89;64.92;102468.50;5029614;28;20036;-58
2022/06/14 00:44:19;;;;;;;;;;;;;;;14.10;62.69;102468.47;5032304;28;20482;-57
2022/06/14 00:47:03;;;;;;;8.75;2.30;;;;;;;13.94;63.89;102470.44;5034095;28;19927;-57
2022/06/14 00:49:34;;;;;;;7.88;2.10;;;;;;;13.81;64.78;102472.47;5028013;28;20022;-55
2022/06/14 00:52:05;;;;;;;7.70;2.17;;;;;;;13.84;64.52;102475.22;5030013;28;20033;-56
2022/06/14 00:54:37;;;;;;;12.27;2.40;;;;;;;13.81;64.72;102470.78;5030624;28;20371;-53
2022/06/14 00:57:14;;;;;;;10.43;2.30;;;;;;;13.74;65.07;102473.94;5030279;28;20222;-57
2022/06/14 00:59:52;;;;;;;6.82;2.13;;;;;;;13.58;65.14;102454.31;5010330;28;20103;-58
2022/06/14 01:02:21;;;;;;;7.05;2.13;;;;;;;13.55;65.52;102454.22;5029729;28;20513;-52
2022/06/14 01:04:48;;;;;;;8.70;2.53;;;;;;;13.45;66.33;102452.06;5030136;28;20033;-57
2022/06/14 01:07:33;;;;;;;8.30;2.30;;;;;;;13.47;65.88;102452.13;5007216;28;20481;-57
2022/06/14 01:10:06;;;;;;;5.03;1.98;;;;;;;13.34;65.86;102451.59;5025094;28;20048;-58
2022/06/14 01:12:36;;;;;;;8.43;2.47;;;;;;;13.33;66.21;102444.69;5008136;28;20041;-50
2022/06/14 01:15:16;;;;;;;8.35;2.33;;;;;;;13.36;66.36;102444.81;5032843;28;20067;-54
2022/06/14 01:17:47;;;;;;;7.63;2.00;;;;;;;13.32;66.91;102447.22;5031284;28;20084;-57
2022/06/14 01:20:16;;;;;;;6.70;2.20;;;;;;;13.29;66.81;102452.25;5030644;28;20114;-55
2022/06/14 01:22:42;;;;;;;8.73;2.28;;;;;;;13.11;67.05;102450.63;5023567;28;20025;-52
2022/06/14 01:25:08;;;;;;;7.05;2.13;;;;;;;13.15;67.08;102442.16;5030300;28;20480;-58
2022/06/14 01:27:36;;;;;;;6.80;1.95;;;;;;;13.19;67.06;102444.91;5030030;28;20144;-51
2022/06/14 01:30:11;;;;;;;4.72;1.92;;;;;;;13.18;67.21;102449.19;5022763;28;20389;-56
2022/06/14 01:32:50;;;;;;;7.65;2.10;;;;;;;13.23;67.22;102445.13;5025359;28;20079;-51
2022/06/14 01:35:19;;;;;;;5.75;2.20;;;;;;;13.03;67.55;102443.34;5025017;28;20481;-56
2022/06/14 01:37:47;;;;;;;5.70;2.22;;;;;;;13.04;67.87;102448.59;5026639;28;20492;-54
2022/06/14 01:40:14;;;;;;;5.93;2.40;;;;;;;12.95;68.08;102453.34;5027757;28;20033;-54
2022/06/14 01:42:48;;;;;;;10.60;2.33;;;;;;;12.94;67.62;102445.53;5026632;28;20035;-55
2022/06/14 01:45:20;;;;;;;10.63;2.15;;;;;;;12.84;67.62;102439.09;5026466;28;20394;-57
2022/06/14 01:48:00;;;;;;;7.15;2.30;;;;;;;12.75;68.13;102434.41;5027453;28;20079;-52
2022/06/14 01:54:05;;;;;;;7.18;2.25;;;;;;;12.76;67.95;102427.56;5026911;28;20048;-57
2022/06/14 01:56:39;;;;;;;6.28;2.08;;;;;;;12.62;68.30;102429.53;5031721;28;20685;-56
2022/06/14 01:59:24;;;;;;;6.55;2.10;;;;;;;12.65;68.19;102437.38;5027720;28;20025;-55
2022/06/14 02:02:00;;;;;;;9.05;2.22;;;;;;;12.70;68.41;102429.88;5032112;28;20115;-59
2022/06/14 02:04:53;;;;;;;7.03;2.40;;;;;;;12.53;68.75;102431.69;5028115;28;20480;-54
2022/06/14 02:07:56;;;;;;;6.70;2.25;;;;;;;12.58;68.16;102432.78;5028417;28;20094;-58
2022/06/14 02:10:45;;;;;;;6.60;2.10;;;;;;;12.46;68.49;102425.38;4997206;28;20042;-54
2022/06/14 02:13:25;;;;;;;9.13;1.95;;;;;;;12.42;68.68;102425.16;5028970;28;20835;-55
2022/06/14 02:16:13;;;;;;;7.20;1.90;;;;;;;12.45;68.75;102415.88;5030969;28;20061;-54
2022/06/14 02:19:07;;;;;;;6.50;2.17;;;;;;;12.47;68.61;102426.25;5032122;28;20949;-58
2022/06/14 02:22:11;;;;;;;6.53;2.38;;;;;;;12.34;69.12;102423.09;5029023;28;20064;-52
2022/06/14 02:24:46;;;;;;;6.10;1.92;;;;;;;12.32;69.36;102423.88;5014485;28;20049;-58
2022/06/14 02:27:45;;;;;;;5.72;2.20;;;;;;;12.26;69.79;102410.69;5029580;28;20389;-58
2022/06/14 02:30:25;;;;;;;6.55;2.13;;;;;;;12.39;69.17;102417.28;5014731;28;20037;-57
2022/06/14 02:33:05;;;;;;;7.50;2.22;;;;;;;12.27;69.95;102404.72;5024774;28;20108;-57
2022/06/14 02:35:41;;;;;;;6.38;1.90;;;;;;;12.15;70.21;102415.34;5031783;28;20609;-55
2022/06/14 02:38:19;;;;;;;7.05;2.15;;;;;;;12.16;69.72;102414.53;5029195;28;20509;-57
2022/06/14 02:41:04;;;;;;;8.32;1.90;;;;;;;12.14;69.92;102405.84;5027861;28;20120;-54
2022/06/14 02:43:45;;;;;;;7.43;2.58;;;;;;;12.08;70.05;102400.41;5027441;28;20033;-54
2022/06/14 02:46:25;;;;;;;7.10;2.15;;;;;;;12.08;69.78;102403.00;5032157;28;20041;-54
2022/06/14 02:48:50;;;;;;;;;;;;;;;12.27;68.15;102405.59;5027704;28;20481;-57
2022/06/14 02:51:27;;;;;;;6.40;2.28;;;;;;;12.03;70.13;102404.47;5028666;28;19921;-54
2022/06/14 02:54:01;;;;;;;6.50;2.15;;;;;;;11.93;70.48;102397.09;5027830;28;20033;-53
2022/06/14 02:56:38;;;;;;;10.30;2.38;;;;;;;12.05;70.51;102397.69;5027140;28;20035;-53
2022/06/14 02:59:15;;;;;;;5.70;2.15;;;;;;;12.07;70.48;102406.34;5025987;28;20493;-54
2022/06/14 03:01:45;;;;;;;6.00;2.45;;;;;;;12.05;70.50;102405.41;5031449;28;20094;-53
2022/06/14 03:04:28;;;;;;;6.65;2.10;;;;;;;12.02;70.47;102410.44;5034086;28;20390;-58
2022/06/14 03:07:35;;;;;;;6.65;1.98;;;;;;;12.03;70.02;102402.75;5026474;28;20025;-55
2022/06/14 03:10:01;;;;;;;7.22;2.28;;;;;;;11.89;70.55;102406.41;5014276;28;20495;-56
2022/06/14 03:12:50;;;;;;;6.95;2.30;;;;;;;11.96;70.17;102402.41;5029396;28;20036;-56
2022/06/14 03:15:24;;;;;;;8.95;2.08;;;;;;;11.83;70.86;102400.97;5028833;28;20025;-56
2022/06/14 03:18:04;;;;;;;5.43;2.20;;;;;;;11.82;70.93;102409.47;5027279;28;20655;-53
2022/06/14 03:20:41;;;;;;;5.47;2.30;;;;;;;11.76;71.14;102415.19;5030234;28;20033;-57
2022/06/14 03:23:24;;;;;;;6.38;2.03;;;;;;;11.80;70.66;102405.91;5030593;28;20120;-57
2022/06/14 03:26:04;;;;;;;6.78;2.55;;;;;;;11.68;71.08;102406.22;5029457;28;20081;-54
2022/06/14 03:28:42;;;;;;;5.80;2.30;;;;;;;11.61;71.34;102406.75;5027141;28;20039;-57
2022/06/14 03:31:13;;;;;;;8.00;2.67;;;;;;;11.50;72.23;102407.91;5013489;28;20031;-54
2022/06/14 03:34:02;;;;;;;5.07;2.33;;;;;;;11.56;71.85;102405.63;5029481;28;20064;-57
2022/06/14 03:36:27;;;;;;;6.00;2.22;;;;;;;11.42;71.77;102404.97;5028603;28;20041;-56
2022/06/14 03:38:57;;;;;;;6.70;2.20;;;;;;;11.39;72.22;102409.94;5027175;28;20045;-57
2022/06/14 03:41:26;;;;;;;8.27;2.20;;;;;;;11.47;72.03;102403.50;5026018;28;20516;-57
2022/06/14 03:43:55;;;;;;;8.80;2.67;;;;;;;11.44;72.30;102410.19;5027872;28;20037;-58
2022/06/14 03:46:21;;;;;;;5.50;2.30;;;;;;;11.36;72.32;102409.81;5030211;28;20414;-57
2022/06/14 03:48:49;;;;;;;7.93;2.28;;;;;;;11.38;72.88;102409.88;5028485;28;20436;-56
2022/06/14 03:51:31;;;;;;;7.60;2.42;;;;;;;11.45;72.14;102401.63;5028386;28;20067;-56
2022/06/14 03:54:15;;;;;;;6.25;2.17;;;;;;;11.50;71.85;102401.06;5027922;28;20497;-54
2022/06/14 03:57:24;;;;;;;7.43;2.38;;;;;;;11.48;72.02;102396.66;5029190;28;20052;-58
2022/06/14 04:00:08;;;;;;;5.28;2.13;;;;;;;11.38;72.55;102400.47;5028728;28;20053;-55
2022/06/14 04:03:02;;;;;;;8.85;2.72;;;;;;;11.38;72.63;102404.72;5028977;28;20120;-56
2022/06/14 04:05:58;;;;;;;7.38;2.45;;;;;;;11.43;72.10;102411.00;5026120;28;20037;-56
2022/06/14 04:08:38;;;;;;;4.53;2.17;;;;;;;11.33;73.27;102404.50;5030738;28;20025;-56
2022/06/14 04:11:13;;;;;;;8.63;2.40;;;;;;;11.43;73.27;102414.44;5027282;28;20025;-55
2022/06/14 04:13:44;;;;;;;5.57;2.58;;;;;;;11.52;72.88;102414.88;5024880;28;20116;-53
2022/06/14 04:16:39;;;;;;;6.25;2.25;;;;;;;11.61;72.45;102411.88;5025678;28;20455;-54
2022/06/14 04:19:35;;;;;;;5.13;2.30;;;;;;;11.58;72.51;102416.00;5026385;28;20025;-52
2022/06/14 04:22:15;;;;;;;8.65;2.35;;;;;;;11.51;73.39;102417.38;5030082;28;20034;-58
2022/06/14 04:24:47;;;;;;;5.30;2.03;;;;;;;11.49;73.61;102422.47;5027895;28;20056;-52
2022/06/14 04:27:33;;;;;;;5.88;2.35;;;;;;;11.64;73.09;102424.91;5028686;28;20025;-58
2022/06/14 04:30:28;;;;;;;6.47;2.47;;;;;;;11.75;72.56;102420.28;5025352;28;20021;-56
2022/06/14 04:33:12;;;;;;;7.28;2.58;;;;;;;11.75;72.84;102422.84;5018242;28;20045;-53
2022/06/14 04:35:51;;;;;;;6.18;2.60;;;;;;;11.76;73.23;102430.66;5026136;28;20481;-57
2022/06/14 04:38:31;;;;;;;8.50;3.35;;;;;;;11.77;73.00;102424.72;5025504;28;20052;-56
2022/06/14 04:41:06;;;;;;;6.78;2.92;;;;;;;11.69;73.75;102418.28;5023189;28;20539;-53
2022/06/14 04:43:50;;;;;;;8.70;3.20;;;;;;;11.72;73.96;102425.28;5025412;28;20446;-52
2022/06/14 04:46:40;;;;;;;5.72;2.72;;;;;;;11.78;73.30;102423.00;5030208;28;20043;-62
2022/06/14 04:49:17;;;;;;;8.25;3.47;;;;;;;11.75;74.07;102434.03;5022546;28;20104;-53
2022/06/14 04:51:51;;;;;;;9.45;3.08;;;;;;;11.76;74.17;102430.66;5025482;28;20410;-51
2022/06/14 04:54:49;;;;;;;9.13;3.20;;;;;;;11.81;73.91;102424.06;5027048;28;20474;-54
2022/06/14 04:57:28;;;;;;;7.82;3.13;;;;;;;11.86;74.50;102424.28;5020101;28;20132;-57
2022/06/14 05:00:03;;;;;;;9.75;3.55;;;;;;;12.00;74.60;102424.94;5028632;28;20552;-53
2022/06/14 05:02:37;;;;;;;8.02;3.53;;;;;;;12.04;74.45;102420.00;5027801;28;20032;-57
2022/06/14 05:05:19;;;;;;;10.27;3.90;;;;;;;12.16;73.91;102424.84;5027715;28;20533;-57
2022/06/14 05:07:53;;;;;;;7.22;3.45;;;;;;;12.21;74.03;102420.78;5027057;28;20024;-61
2022/06/14 05:10:49;;;;;;;10.25;3.70;;;;;;;12.30;73.79;102422.88;5028456;28;20025;-58
2022/06/14 05:13:27;;;;;;;7.60;3.28;;;;;;;12.28;74.42;102429.69;5028513;28;20040;-56
2022/06/14 05:16:01;;;;;;;7.88;3.42;;;;;;;12.43;74.49;102427.78;5027176;28;20037;-54
2022/06/14 05:18:41;;;;;;;10.45;3.83;;;;;;;12.47;74.90;102424.53;5026998;28;20047;-54
2022/06/14 05:21:20;;;;;;;10.05;3.85;;;;;;;12.57;75.21;102431.91;5027252;28;20069;-59
2022/06/14 05:23:54;;;;;;;14.00;3.80;;;;;;;12.63;75.02;102427.81;5027088;28;20029;-53
2022/06/14 05:26:29;;;;;;;9.32;4.05;;;;;;;12.73;75.28;102436.03;5024075;28;20045;-56
2022/06/14 05:29:06;;;;;;;8.50;3.90;;;;;;;12.80;75.05;102429.44;5025249;28;20044;-59
2022/06/14 05:31:43;;;;;;;7.72;3.30;;;;;;;12.85;75.27;102444.31;5025336;28;20107;-56
2022/06/14 05:34:40;;;;;;;11.20;4.00;;;;;;;12.93;74.45;102442.09;5021328;28;20120;-56
2022/06/14 05:37:11;;;;;;;14.05;4.03;;;;;;;12.97;73.88;102443.06;5029607;28;20043;-58
2022/06/14 05:39:46;;;;;;;10.13;4.00;;;;;;;13.01;73.73;102443.28;5014861;28;20030;-51
2022/06/14 05:42:18;;;;;;;12.60;3.97;;;;;;;13.08;73.82;102447.00;5029430;28;20025;-58
2022/06/14 05:44:47;;;;;;;10.25;3.67;;;;;;;13.17;73.03;102442.25;5029961;28;20029;-58
2022/06/14 05:47:41;;;;;;;12.82;4.20;;;;;;;13.25;73.14;102440.91;5034432;28;20470;-56
2022/06/14 05:50:14;;;;;;;13.73;3.95;;;;;;;13.43;72.61;102445.06;5028861;28;20041;-53
2022/06/14 05:52:54;;;;;;;17.33;4.25;;;;;;;13.51;71.83;102441.09;5034849;28;20044;-58
2022/06/14 05:55:26;;;;;;;10.90;3.95;;;;;;;13.63;71.00;102444.19;5032858;28;20059;-57
2022/06/14 05:58:21;;;;;;;10.35;4.15;;;;;;;13.73;70.90;102450.63;5033363;28;20379;-56
2022/06/14 06:00:52;;;;;;;10.85;3.65;;;;;;;13.89;69.82;102446.13;5031224;28;20911;-57
2022/06/14 06:03:26;;;;;;;15.57;4.25;;;;;;;13.99;69.32;102441.31;5030014;28;20018;-55
2022/06/14 06:05:59;;;;;;;13.15;3.72;;;;;;;14.08;69.21;102445.16;5029584;28;20367;-56
2022/06/14 06:08:36;;;;;;;10.65;4.18;;;;;;;14.17;68.10;102444.59;5032580;28;20029;-58
2022/06/14 06:11:36;;;;;;;10.35;4.20;;;;;;;14.28;68.62;102451.06;5033858;28;20075;-59
2022/06/14 06:14:04;;;;;;;12.45;4.07;;;;;;;14.41;68.99;102450.72;5033719;28;20033;-56
2022/06/14 06:17:12;;;;;;;12.03;3.93;;;;;;;14.58;68.12;102453.09;5034158;28;20025;-57
2022/06/14 06:20:25;;;;;;;11.75;4.05;;;;;;;14.68;68.21;102450.00;5023558;28;20045;-58
2022/06/14 06:22:53;;;;;;;11.55;4.00;;;;;;;14.80;66.58;102454.72;5034009;28;20105;-56
2022/06/14 06:25:27;;;;;;;8.75;4.18;;;;;;;14.93;67.19;102450.06;5029967;28;20465;-58
2022/06/14 06:28:02;;;;;;;10.27;4.22;;;;;;;15.04;66.34;102445.25;5032415;28;20527;-58
2022/06/14 06:30:48;;;;;;;9.85;4.00;;;;;;;15.19;64.63;102442.31;5034088;28;20029;-55
2022/06/14 06:33:17;;;;;;;8.80;3.28;;;;;;;15.21;62.05;102443.25;5024783;28;20900;-56
2022/06/14 06:36:26;;;;;;;9.32;3.35;;;;;;;15.35;63.20;102449.78;5033933;28;20071;-59
2022/06/14 06:39:37;;;;;;;7.55;3.08;;;;;;;15.42;63.07;102456.94;5039533;28;20500;-57
2022/06/14 06:42:06;;;;;;;8.50;1.80;;;;;;;15.45;55.29;102454.44;4960117;28;20034;-59
2022/06/14 06:44:46;;;;;;;12.05;2.58;;;;;;;15.58;59.09;102453.13;5027011;28;20539;-58
2022/06/14 06:47:23;;;;;;;7.47;2.47;;;;;;;15.73;58.91;102464.03;5013515;28;20104;-58
2022/06/14 06:50:03;;;;;;;8.27;1.83;;;;;;;15.80;58.20;102455.63;5033492;28;20475;-58
2022/06/14 06:52:39;;;;;;;8.45;1.73;;;;;;;15.84;57.71;102460.91;5037051;28;20020;-57
2022/06/14 06:55:12;;;;;;;5.32;1.73;;;;;;;15.95;58.67;102454.31;5036944;28;20035;-55
2022/06/14 06:57:41;;;;;;;7.47;1.92;;;;;;;16.11;58.17;102453.97;5034486;28;20021;-56
2022/06/14 07:00:10;;;;;;;8.75;2.20;;;;;;;16.15;56.82;102454.97;5038756;28;20118;-58
2022/06/14 07:02:47;;;;;;;7.28;2.17;;;;;;;16.25;57.66;102451.78;5035847;28;20037;-59
2022/06/14 07:05:14;;;;;;;9.10;2.17;;;;;;;16.31;56.30;102442.47;5033083;28;20465;-58
2022/06/14 07:07:46;;;;;;;13.20;1.80;;;;;;;16.50;57.07;102451.72;5033600;28;20044;-57
2022/06/14 07:10:23;;;;;;;9.88;1.75;;;;;;;16.54;55.27;102448.34;5035122;28;20029;-57
2022/06/14 07:13:04;;;;;;;7.82;1.85;;;;;;;16.56;53.66;102449.28;5035136;28;20762;-58
2022/06/14 07:15:41;;;;;;;5.57;2.10;;;;;;;16.63;54.11;102451.22;5031259;28;20060;-54
2022/06/14 07:18:17;;;;;;;8.73;2.03;;;;;;;16.62;54.13;102451.16;5036951;28;20034;-54
2022/06/14 07:20:48;;;;;;;6.28;1.90;;;;;;;16.71;55.11;102446.25;5014815;28;20132;-55
2022/06/14 07:23:19;;;;;;;9.20;2.08;;;;;;;16.65;48.83;102453.84;5030665;28;20927;-52
2022/06/14 07:25:48;;;;;;;5.15;1.88;;;;;;;16.75;51.92;102460.22;5034849;28;20108;-54
2022/06/14 07:28:24;;;;;;;7.50;2.60;;;;;;;16.86;54.04;102454.47;5033740;28;20486;-57
2022/06/14 07:30:54;;;;;;;13.38;2.50;;;;;;;16.89;54.74;102448.50;5034358;28;20488;-58
2022/06/14 07:33:23;;;;;;;9.30;2.13;;;;;;;17.00;52.98;102447.06;5010475;28;20025;-56
2022/06/14 07:35:58;;;;;;;8.88;2.65;;;;;;;17.07;51.99;102453.31;5030048;28;20413;-55
2022/06/14 07:38:40;;;;;;;7.68;2.50;;;;;;;17.13;53.27;102446.53;5030925;28;20032;-53
2022/06/14 07:41:35;;;;;;;7.53;2.50;;;;;;;17.14;53.27;102445.69;5027619;28;20037;-56
2022/06/14 07:44:08;;;;;;;6.68;1.85;;;;;;;17.14;51.03;102448.31;5032272;28;20029;-55
2022/06/14 07:46:45;;;;;;;7.38;2.08;;;;;;;17.33;51.96;102443.56;5028348;28;20036;-58
2022/06/14 07:49:18;;;;;;;8.45;1.90;;;;;;;17.35;50.83;102445.38;5031399;28;20037;-58
2022/06/14 07:51:53;;;;;;;5.38;1.45;;;;;;;17.39;49.30;102446.34;5035237;28;20493;-55
2022/06/14 07:54:41;;;;;;;7.88;1.60;;;;;;;17.49;51.02;102447.44;5034806;28;20025;-58
2022/06/14 07:57:23;;;;;;;7.70;1.85;;;;;;;17.57;52.39;102449.38;5031251;28;20055;-53
2022/06/14 08:01:07;;;;;;;5.40;1.73;;;;;;;17.65;50.69;102452.16;5034107;28;20508;-54
2022/06/14 08:02:44;;;;;;;4.50;1.75;;;;;;;17.62;49.92;102449.50;5031721;28;20120;-56
2022/06/14 08:05:17;;;;;;;8.90;2.15;;;;;;;17.64;51.01;102450.41;5035733;28;20060;-57
2022/06/14 08:07:47;;;;;;;5.88;1.92;;;;;;;17.72;48.99;102450.66;5034750;28;20025;-59
2022/06/14 08:10:23;;;;;;;8.35;1.92;;;;;;;17.78;48.38;102449.06;5032049;28;20096;-59
2022/06/14 08:12:54;;;;;;;8.95;2.20;;;;;;;17.78;49.02;102449.06;5034025;28;20489;-57
2022/06/14 08:15:23;;;;;;;4.20;1.60;;;;;;;17.90;48.90;102436.34;5031313;28;20056;-53
2022/06/14 08:18:10;;;;;;;5.43;2.00;;;;;;;17.91;49.91;102435.50;5033945;28;20564;-58
2022/06/14 08:20:48;;;;;;;4.68;1.90;;;;;;;17.96;48.28;102433.00;5040008;28;20021;-59
2022/06/14 08:23:25;;;;;;;7.07;1.67;;;;;;;18.11;49.60;102435.06;5029797;28;20044;-56
2022/06/14 08:25:57;;;;;;;7.03;2.03;;;;;;;18.15;47.77;102429.97;5038837;28;20488;-57
2022/06/14 08:28:28;;;;;;;4.78;1.65;;;;;;;18.02;47.24;102430.53;5031512;28;20029;-58
2022/06/14 08:31:01;;;;;;;6.38;1.80;;;;;;;18.18;47.57;102432.59;5031141;28;20139;-51
2022/06/14 08:33:38;;;;;;;6.32;2.00;;;;;;;18.21;47.76;102430.09;5032081;28;20028;-58
2022/06/14 08:36:27;;;;;;;5.88;2.00;;;;;;;18.32;48.44;102429.41;5035453;28;20914;-56
2022/06/14 08:38:57;;;;;;;5.00;1.65;;;;;;;18.35;47.70;102424.28;4998425;28;20044;-59
2022/06/14 08:41:40;;;;;;;6.07;2.30;;;;;;;18.37;47.96;102419.97;5033503;28;20025;-56
2022/06/14 08:44:18;;;;;;;9.05;1.92;;;;;;;18.48;49.42;102416.75;5035353;28;20024;-58
2022/06/14 08:47:02;;;;;;;5.30;2.15;;;;;;;18.46;46.23;102420.19;5034783;28;20030;-57
2022/06/14 08:50:07;;;;;;;7.13;2.35;;;;;;;18.58;48.13;102422.16;5037976;28;20027;-58
2022/06/14 08:53:00;;;;;;;8.02;3.30;;;;;;;18.65;48.97;102422.31;4935245;28;20039;-56
2022/06/14 08:55:38;;;;;;;7.72;2.50;;;;;;;18.68;49.32;102422.38;5027135;28;20029;-54
2022/06/14 08:58:24;;;;;;;6.30;2.50;;;;;;;18.66;48.95;102417.97;5036056;28;20759;-54
2022/06/14 09:01:09;;;;;;;7.93;2.17;;;;;;;18.78;49.60;102422.56;5032994;28;20045;-58
2022/06/14 09:04:04;;;;;;;6.63;2.25;;;;;;;18.83;47.88;102423.53;5029549;28;20083;-57
2022/06/14 09:06:50;;;;;;;10.38;2.60;;;;;;;18.83;46.75;102418.34;5034493;28;20390;-57
2022/06/14 09:09:40;;;;;;;7.07;2.42;;;;;;;18.94;47.82;102422.03;5030635;28;20028;-58
2022/06/14 09:12:15;;;;;;;5.72;1.90;;;;;;;19.04;47.77;102416.09;5031653;28;20029;-57
2022/06/14 09:15:10;;;;;;;5.05;2.10;;;;;;;19.08;48.53;102414.44;5029274;28;20047;-57
2022/06/14 09:18:00;;;;;;;6.07;2.28;;;;;;;19.17;46.74;102415.50;5036175;28;20040;-55
2022/06/14 09:20:42;;;;;;;4.82;2.28;;;;;;;19.21;47.14;102416.41;5033941;28;20474;-56
2022/06/14 09:23:18;;;;;;;5.55;2.20;;;;;;;19.23;46.50;102417.28;5030316;28;20033;-58
2022/06/14 09:25:49;;;;;;;5.80;2.10;;;;;;;19.28;46.07;102416.53;5034669;28;20032;-54
2022/06/14 09:28:33;;;;;;;7.75;2.58;;;;;;;19.28;45.49;102413.03;5033257;28;20494;-54
2022/06/14 09:31:17;;;;;;;6.70;2.20;;;;;;;19.37;45.65;102407.13;5034692;28;20025;-57
2022/06/14 09:34:16;;;;;;;5.13;2.17;;;;;;;19.46;46.87;102409.84;5034639;28;20140;-58
2022/06/14 09:36:47;;;;;;;7.95;2.03;;;;;;;19.58;46.31;102409.16;5027507;28;20036;-53
2022/06/14 09:39:23;;;;;;;8.38;2.00;;;;;;;19.66;46.87;102403.25;5035500;28;20096;-59
2022/06/14 09:42:28;;;;;;;7.95;2.00;;;;;;;19.75;46.90;102405.13;5030627;28;20060;-55
2022/06/14 09:45:33;;;;;;;8.30;2.25;;;;;;;19.92;47.15;102392.31;5004696;28;20040;-59
2022/06/14 09:48:45;;;;;;;5.93;2.00;;;;;;;20.06;47.01;102385.53;5030994;28;20481;-59
2022/06/14 09:51:31;;;;;;;5.10;1.85;;;;;;;20.15;46.59;102385.66;5031242;28;20040;-54
2022/06/14 09:54:17;;;;;;;6.40;2.38;;;;;;;20.19;46.06;102392.66;5033703;28;20045;-55
2022/06/14 09:57:44;;;;;;;7.93;2.58;;;;;;;20.34;45.71;102387.66;5032208;28;20066;-54
2022/06/14 10:00:21;;;;;;;6.43;2.83;;;;;;;20.41;45.51;102378.13;4977623;28;20052;-59
2022/06/14 10:03:13;;;;;;;5.43;2.33;;;;;;;20.53;45.91;102370.47;5032579;28;20048;-57
2022/06/14 10:05:48;;;;;;;7.47;2.20;;;;;;;20.57;44.71;102379.22;5027977;28;20393;-58
2022/06/14 10:08:23;;;;;;;5.80;2.00;;;;;;;20.58;43.40;102373.13;5030873;28;20070;-56
2022/06/14 10:11:05;;;;;;;7.68;2.78;;;;;;;20.61;42.86;102366.19;5037650;28;20576;-58
2022/06/14 10:13:52;;;;;;;7.03;2.63;;;;;;;20.57;42.78;102368.78;5039835;28;20029;-55
2022/06/14 10:16:56;;;;;;;6.10;2.25;;;;;;;20.72;44.83;102362.81;5035353;28;20082;-58
2022/06/14 10:19:48;;;;;;;6.63;2.03;;;;;;;20.82;42.78;102369.91;4947595;28;20477;-56
2022/06/14 10:22:32;;;;;;;3.85;2.03;;;;;;;20.48;41.40;102358.22;5031973;28;20045;-55
2022/06/14 10:25:30;;;;;;;5.75;1.90;;;;;;;20.52;41.90;102354.78;5033694;28;20485;-57
2022/06/14 10:28:13;;;;;;;5.50;1.90;;;;;;;20.60;42.50;102355.72;5033332;28;20087;-53
2022/06/14 10:30:59;;;;;;;6.47;2.10;;;;;;;20.81;42.74;102361.19;5021156;28;20029;-58
2022/06/14 10:33:48;;;;;;;4.60;1.50;;;;;;;20.96;42.85;102362.19;5031388;28;20033;-58
2022/06/14 10:36:27;;;;;;;6.55;1.90;;;;;;;21.09;41.59;102350.94;5037771;28;20029;-54
2022/06/14 10:39:11;;;;;;;6.15;2.03;;;;;;;21.25;42.38;102344.13;5035821;28;20390;-59
2022/06/14 10:41:49;;;;;;;6.30;1.60;;;;;;;21.23;41.48;102341.47;5032823;28;20083;-59
2022/06/14 10:44:54;;;;;;;6.63;2.25;;;;;;;21.41;42.82;102340.75;5035772;28;20075;-56
2022/06/14 10:47:39;;;;;;;4.22;1.65;;;;;;;21.44;40.95;102330.31;5030334;28;20040;-57
2022/06/14 10:50:30;;;;;;;6.03;2.13;;;;;;;21.40;40.94;102331.16;5030864;28;20045;-59
2022/06/14 10:53:11;;;;;;;6.88;1.98;;;;;;;21.44;41.28;102330.31;5032967;28;20029;-59
2022/06/14 10:55:48;;;;;;;5.85;2.38;;;;;;;21.39;40.50;102330.28;5039596;28;20529;-59
2022/06/14 10:58:30;;;;;;;6.65;1.80;;;;;;;21.50;41.49;102319.88;5036395;28;20049;-53
2022/06/14 11:01:14;;;;;;;5.68;1.50;;;;;;;21.48;41.80;102325.97;5039853;28;20405;-58
2022/06/14 11:03:55;;;;;;;8.48;3.00;;;;;;;21.41;40.78;102315.47;5031285;28;20034;-58
2022/06/14 11:06:51;;;;;;;6.80;2.20;;;;;;;21.48;41.62;102302.41;5036938;28;20033;-56
2022/06/14 11:09:53;;;;;;;6.43;2.05;;;;;;;21.28;40.81;102312.72;5031466;28;20037;-58
2022/06/14 11:12:36;;;;;;;5.55;1.98;;;;;;;21.15;40.85;102311.75;5035879;28;20037;-59
2022/06/14 11:15:59;;;;;;;7.25;2.30;;;;;;;21.24;41.37;102318.81;5036183;28;20048;-56
2022/06/14 11:18:56;;;;;;;6.97;2.42;;;;;;;21.14;41.05;102317.88;4943446;28;20079;-58
2022/06/14 11:21:34;;;;;;;5.35;2.15;;;;;;;21.11;41.43;102310.88;4919859;28;20106;-55
2022/06/14 11:24:14;;;;;;;6.22;2.38;;;;;;;21.11;39.88;102312.59;5017278;28;20037;-59
2022/06/14 11:26:51;;;;;;;5.30;1.77;;;;;;;21.10;40.44;102313.47;5032884;28;20052;-58
2022/06/14 11:29:37;;;;;;;6.18;2.00;;;;;;;21.17;40.53;102299.56;5033726;28;20035;-59
2022/06/14 11:32:24;;;;;;;4.35;1.80;;;;;;;21.30;41.07;102296.22;5034456;28;20533;-57
2022/06/14 11:34:49;;;;;;;6.50;1.98;;;;;;;21.33;39.86;102300.59;5037155;28;20481;-52
2022/06/14 11:37:37;;;;;;;3.95;1.80;;;;;;;21.23;39.59;102296.13;5031486;28;20030;-58
2022/06/14 11:40:05;;;;;;;7.18;1.88;;;;;;;21.07;39.22;102293.41;5038419;28;20017;-57
2022/06/14 11:42:54;;;;;;;5.20;1.90;;;;;;;21.17;40.27;102283.88;5036129;28;20486;-57
2022/06/14 11:45:51;;;;;;;4.55;1.85;;;;;;;21.17;39.61;102283.88;5034879;28;20045;-55
2022/06/14 11:48:37;;;;;;;6.20;2.00;;;;;;;21.17;39.56;102286.47;5031709;28;20544;-54
2022/06/14 11:51:26;;;;;;;5.72;1.95;;;;;;;21.14;39.96;102276.88;5031358;28;20064;-53
2022/06/14 11:54:13;;;;;;;5.57;1.70;;;;;;;21.25;41.47;102269.13;5030448;28;20032;-55
2022/06/14 11:56:56;;;;;;;7.85;2.00;;;;;;;21.31;40.82;102266.56;5030607;28;20029;-58
2022/06/14 11:59:22;;;;;;;7.10;1.70;;;;;;;21.32;39.30;102265.69;5036502;28;20432;-58
2022/06/14 12:01:59;;;;;;;5.80;2.05;;;;;;;21.28;38.74;102266.50;5038838;28;20048;-54
2022/06/14 12:04:54;;;;;;;4.68;1.75;;;;;;;21.30;39.06;102267.44;5036601;28;20410;-58
2022/06/14 12:07:20;;;;;;;4.28;1.52;;;;;;;21.29;38.58;102256.94;5032599;28;20021;-58
2022/06/14 12:10:22;;;;;;;5.00;1.67;;;;;;;21.41;39.79;102263.13;5034954;28;21240;-57
2022/06/14 12:13:03;;;;;;;6.97;1.45;;;;;;;21.53;41.52;102269.28;5033765;28;20464;-57
2022/06/14 12:15:34;;;;;;;5.18;1.83;;;;;;;21.40;38.85;102258.75;5032105;28;20029;-59
2022/06/14 12:18:03;;;;;;;5.50;2.00;;;;;;;21.49;39.24;102264.94;5037580;28;20107;-56
2022/06/14 12:20:34;;;;;;;4.10;1.75;;;;;;;21.39;38.86;102274.47;5031325;28;20025;-57
2022/06/14 12:23:17;;;;;;;5.93;2.00;;;;;;;21.33;38.38;102262.22;5032181;28;20116;-56
2022/06/14 12:26:58;;;;;;;4.75;2.03;;;;;;;21.35;38.76;102256.97;5035418;28;20505;-56
2022/06/14 12:29:15;;;;;;;3.72;1.48;;;;;;;21.36;39.11;102249.16;5023206;28;20037;-54